Time;durP1;ratioP1;P1;durP2;ratioP2;P2;SDS_P1;SDS_P2;PMS_P1;PMS_P2;Temp;Humidity;BMP_temperature;BMP_pressure;BME280_temperature;BME280_humidity;BME280_pressure;Samples;Min_cycle;Max_cycle;Signal;HPM_P1;HPM_P2
2021/04/21 00:02:18;;;;;;;14.60;10.40;;;4.30;99.90;;;;;;5027879;28;20084;-74
2021/04/21 00:04:45;;;;;;;14.02;9.85;;;4.20;99.90;;;;;;5027791;28;20172;-74
2021/04/21 00:07:15;;;;;;;16.50;10.90;;;4.10;99.90;;;;;;5024629;28;20085;-74
2021/04/21 00:09:41;;;;;;;13.68;9.68;;;3.90;99.90;;;;;;5027854;28;20123;-74
2021/04/21 00:12:07;;;;;;;16.83;10.15;;;3.60;99.90;;;;;;5029240;28;20074;-74
2021/04/21 00:14:33;;;;;;;16.67;11.35;;;3.60;99.90;;;;;;5010265;28;20080;-73
2021/04/21 00:17:01;;;;;;;15.98;10.95;;;3.70;99.90;;;;;;5009373;28;20070;-74
2021/04/21 00:19:31;;;;;;;15.57;9.80;;;3.90;99.90;;;;;;5024745;28;20124;-74
2021/04/21 00:22:00;;;;;;;13.85;9.27;;;3.90;99.90;;;;;;5022877;28;20082;-73
2021/04/21 00:24:29;;;;;;;15.30;10.73;;;3.80;99.90;;;;;;5028683;28;20530;-73
2021/04/21 00:26:56;;;;;;;14.00;9.80;;;3.80;99.90;;;;;;5027095;28;20078;-73
2021/04/21 00:29:23;;;;;;;16.95;10.68;;;3.80;99.90;;;;;;5026267;28;20569;-73
2021/04/21 00:31:49;;;;;;;15.48;10.65;;;3.80;99.90;;;;;;5026589;28;20074;-73
2021/04/21 00:34:18;;;;;;;12.80;8.82;;;3.80;99.90;;;;;;5031305;28;20086;-74
2021/04/21 00:36:48;;;;;;;14.70;9.35;;;3.80;99.90;;;;;;5029069;28;20090;-74
2021/04/21 00:39:15;;;;;;;13.57;9.50;;;3.80;99.90;;;;;;5009617;28;20090;-74
2021/04/21 00:41:54;;;;;;;14.23;10.15;;;3.80;99.90;;;;;;5029509;28;20569;-73
2021/04/21 00:44:40;;;;;;;14.07;9.20;;;3.90;99.90;;;;;;5032526;28;20509;-74
2021/04/21 00:47:10;;;;;;;12.57;8.18;;;4.00;99.90;;;;;;5031767;28;20584;-74
2021/04/21 00:49:49;;;;;;;14.50;10.50;;;4.00;99.90;;;;;;5029022;28;20139;-74
2021/04/21 00:52:40;;;;;;;14.18;9.35;;;4.10;99.90;;;;;;5030840;28;20121;-74
2021/04/21 00:55:10;;;;;;;14.35;9.30;;;4.00;99.90;;;;;;5012792;28;20093;-73
2021/04/21 00:58:02;;;;;;;14.48;9.48;;;3.90;99.90;;;;;;5027826;28;20078;-74
2021/04/21 01:00:31;;;;;;;13.13;9.23;;;3.80;99.90;;;;;;5030576;28;20090;-74
2021/04/21 01:03:03;;;;;;;12.73;8.98;;;3.80;99.90;;;;;;5031548;28;20101;-74
2021/04/21 01:05:40;;;;;;;13.35;8.75;;;3.70;99.90;;;;;;5028033;28;20098;-74
2021/04/21 01:08:06;;;;;;;12.80;9.45;;;3.70;99.90;;;;;;5013988;28;20620;-74
2021/04/21 01:10:49;;;;;;;14.18;9.95;;;3.70;99.90;;;;;;5032137;28;20081;-74
2021/04/21 01:13:16;;;;;;;11.88;8.35;;;3.80;99.90;;;;;;5023275;28;20223;-74
2021/04/21 01:15:44;;;;;;;15.35;9.98;;;3.70;99.90;;;;;;4997640;28;20426;-74
2021/04/21 01:18:11;;;;;;;13.07;9.15;;;3.60;99.90;;;;;;5026777;28;20090;-74
2021/04/21 01:20:56;;;;;;;12.18;8.98;;;3.30;99.90;;;;;;5027870;28;20108;-74
2021/04/21 01:24:07;;;;;;;14.07;9.15;;;3.20;99.90;;;;;;5029794;28;20108;-74
2021/04/21 01:26:50;;;;;;;13.52;8.25;;;3.50;99.90;;;;;;5001480;28;20176;-74
2021/04/21 01:29:48;;;;;;;14.52;9.63;;;3.50;99.90;;;;;;5029501;28;20108;-73
2021/04/21 01:32:15;;;;;;;11.75;9.02;;;3.60;99.90;;;;;;5007427;28;20096;-73
2021/04/21 01:34:45;;;;;;;13.00;9.05;;;3.60;99.90;;;;;;5030543;28;20565;-74
2021/04/21 01:37:15;;;;;;;13.85;8.68;;;3.60;99.90;;;;;;5028412;28;20101;-74
2021/04/21 01:40:07;;;;;;;14.93;9.68;;;3.60;99.90;;;;;;5027542;28;20074;-73
2021/04/21 01:42:38;;;;;;;13.68;9.27;;;3.60;99.90;;;;;;5026144;28;20550;-73
2021/04/21 01:45:05;;;;;;;13.32;9.75;;;3.30;99.90;;;;;;5030962;28;20132;-74
2021/04/21 01:47:32;;;;;;;12.75;9.40;;;3.30;99.90;;;;;;5025691;28;20583;-73
2021/04/21 01:50:05;;;;;;;12.43;8.90;;;3.30;99.90;;;;;;5028788;28;20082;-74
2021/04/21 01:52:54;;;;;;;13.38;9.15;;;3.30;99.90;;;;;;5028176;28;20489;-74
2021/04/21 01:55:19;;;;;;;15.55;10.10;;;3.30;99.90;;;;;;5029845;28;20097;-74
2021/04/21 01:57:59;;;;;;;12.13;8.85;;;3.50;99.90;;;;;;5031532;28;20089;-74
2021/04/21 02:00:35;;;;;;;13.75;9.48;;;3.60;99.90;;;;;;5028905;28;20224;-74
2021/04/21 02:03:17;;;;;;;14.07;9.45;;;3.60;99.90;;;;;;5030572;28;20155;-74
2021/04/21 02:06:00;;;;;;;15.35;8.88;;;3.60;99.90;;;;;;5026800;28;20125;-74
2021/04/21 02:08:46;;;;;;;12.65;8.68;;;3.50;99.90;;;;;;5028827;28;20078;-74
2021/04/21 02:11:20;;;;;;;13.98;9.00;;;3.50;99.90;;;;;;5007408;28;20078;-74
2021/04/21 02:14:08;;;;;;;16.00;8.73;;;3.50;99.90;;;;;;5025319;28;20074;-74
2021/04/21 02:16:39;;;;;;;13.82;9.18;;;3.50;99.90;;;;;;5031379;28;20121;-75
2021/04/21 02:19:15;;;;;;;14.40;9.60;;;3.40;99.90;;;;;;5028235;28;20074;-74
2021/04/21 02:21:58;;;;;;;15.98;9.77;;;3.30;99.90;;;;;;5028916;28;20495;-74
2021/04/21 02:24:45;;;;;;;15.60;9.70;;;3.30;99.90;;;;;;5029309;28;20077;-74
2021/04/21 02:27:17;;;;;;;13.25;8.40;;;3.40;99.90;;;;;;5021803;28;20077;-74
2021/04/21 02:29:49;;;;;;;13.77;9.10;;;3.50;99.90;;;;;;5028189;28;20109;-73
2021/04/21 02:32:42;;;;;;;14.70;9.50;;;3.40;99.90;;;;;;5029652;28;20074;-73
2021/04/21 02:35:18;;;;;;;13.15;8.82;;;3.40;99.90;;;;;;5002305;28;20094;-73
2021/04/21 02:37:49;;;;;;;12.43;8.50;;;3.40;99.90;;;;;;5010876;28;20113;-73
2021/04/21 02:40:39;;;;;;;13.35;8.75;;;3.40;99.90;;;;;;5027812;28;20116;-74
2021/04/21 02:43:35;;;;;;;17.08;9.73;;;3.40;99.90;;;;;;5028250;28;20083;-74
2021/04/21 02:46:23;;;;;;;15.18;10.60;;;3.40;99.90;;;;;;5017146;28;20594;-73
2021/04/21 02:48:59;;;;;;;14.15;9.63;;;3.40;99.90;;;;;;5024923;28;20074;-74
2021/04/21 02:51:33;;;;;;;14.27;9.30;;;3.20;99.90;;;;;;5008958;28;20164;-74
2021/04/21 02:54:12;;;;;;;12.63;8.90;;;3.20;99.90;;;;;;5026738;28;20089;-73
2021/04/21 02:56:58;;;;;;;15.55;10.00;;;3.40;99.90;;;;;;5008109;28;20098;-74
2021/04/21 02:59:43;;;;;;;12.88;8.77;;;3.30;99.90;;;;;;5022724;28;20077;-74
2021/04/21 03:02:10;;;;;;;;;;;3.30;99.90;;;;;;5011936;28;20091;-74
2021/04/21 03:04:48;;;;;;;14.00;9.05;;;3.20;99.90;;;;;;5025928;28;20598;-74
2021/04/21 03:07:55;;;;;;;12.18;8.27;;;3.10;99.90;;;;;;5024841;28;20074;-74
2021/04/21 03:10:25;;;;;;;14.07;9.10;;;3.10;99.90;;;;;;4974943;28;20144;-74
2021/04/21 03:13:29;;;;;;;13.85;8.50;;;3.20;99.90;;;;;;5028742;28;20173;-74
2021/04/21 03:16:18;;;;;;;14.73;8.73;;;3.20;99.90;;;;;;5007878;28;20116;-74
2021/04/21 03:19:30;;;;;;;11.77;8.55;;;3.20;99.90;;;;;;5014066;28;20157;-75
2021/04/21 03:22:04;;;;;;;13.68;8.88;;;3.20;99.90;;;;;;5008586;28;20120;-74
2021/04/21 03:24:57;;;;;;;17.08;9.52;;;3.20;99.90;;;;;;4997999;28;20080;-75
2021/04/21 03:27:28;;;;;;;17.38;10.23;;;3.00;99.90;;;;;;5027670;28;20444;-74
2021/04/21 03:30:46;;;;;;;14.48;10.95;;;2.90;99.90;;;;;;5005055;28;20084;-74
2021/04/21 03:37:24;;;;;;;12.10;8.00;;;2.70;99.90;;;;;;5027901;28;20117;-76
2021/04/21 03:39:51;;;;;;;14.65;8.32;;;2.60;99.90;;;;;;5026988;28;20086;-77
2021/04/21 03:43:11;;;;;;;16.30;9.73;;;2.50;99.90;;;;;;5011404;28;20105;-77
2021/04/21 04:09:46;;;;;;;14.10;8.82;;;2.90;99.90;;;;;;4950076;29;20563;-74
2021/04/21 04:12:13;;;;;;;15.82;10.23;;;2.60;99.90;;;;;;4924792;29;20099;-75
2021/04/21 04:14:40;;;;;;;14.52;9.77;;;2.50;99.90;;;;;;4992451;28;20086;-74
2021/04/21 04:17:07;;;;;;;18.23;10.85;;;2.30;99.90;;;;;;4990853;28;20087;-75
2021/04/21 04:19:37;;;;;;;16.90;10.75;;;2.20;99.90;;;;;;4985823;28;20575;-74
2021/04/21 04:22:02;;;;;;;16.15;10.50;;;2.30;99.90;;;;;;5000373;28;20546;-75
2021/04/21 04:24:34;;;;;;;17.20;11.52;;;2.40;99.90;;;;;;4988954;28;20079;-74
2021/04/21 04:27:01;;;;;;;17.52;11.50;;;2.70;99.90;;;;;;4971800;28;20189;-75
2021/04/21 04:29:27;;;;;;;17.52;10.05;;;2.80;99.90;;;;;;4995212;28;20083;-75
2021/04/21 04:31:53;;;;;;;16.92;10.65;;;2.80;99.90;;;;;;4986939;28;20078;-75
2021/04/21 04:34:21;;;;;;;19.75;11.43;;;2.70;99.90;;;;;;4997703;28;20089;-75
2021/04/21 04:36:47;;;;;;;18.27;10.27;;;2.60;99.90;;;;;;4972169;28;20079;-76
2021/04/21 04:39:14;;;;;;;16.20;10.20;;;2.60;99.90;;;;;;4990523;28;20082;-75
2021/04/21 04:41:40;;;;;;;16.15;9.88;;;2.60;99.90;;;;;;4992493;28;20508;-75
2021/04/21 04:44:07;;;;;;;17.23;10.70;;;2.50;99.90;;;;;;4990732;28;20093;-75
2021/04/21 04:46:39;;;;;;;15.30;10.85;;;2.50;99.90;;;;;;4991684;28;20091;-75
2021/04/21 04:49:10;;;;;;;16.52;10.57;;;2.60;99.90;;;;;;4990017;28;20077;-74
2021/04/21 04:51:43;;;;;;;19.50;11.98;;;2.70;99.90;;;;;;4977056;28;20730;-75
2021/04/21 04:54:11;;;;;;;19.48;11.32;;;2.80;99.90;;;;;;4995826;28;20079;-75
2021/04/21 04:56:37;;;;;;;18.95;11.85;;;2.90;99.90;;;;;;4990265;28;20105;-75
2021/04/21 04:59:05;;;;;;;17.27;10.70;;;3.10;99.90;;;;;;4996414;28;20158;-75
2021/04/21 05:01:58;;;;;;;16.85;10.75;;;3.00;99.90;;;;;;4998796;28;20113;-75
2021/04/21 05:04:32;;;;;;;17.02;10.60;;;2.90;99.90;;;;;;5002617;28;20116;-75
2021/04/21 05:07:03;;;;;;;16.67;11.50;;;3.00;99.90;;;;;;4998755;28;20079;-75
2021/04/21 05:09:33;;;;;;;17.38;11.10;;;3.10;99.90;;;;;;4994793;28;20193;-76
2021/04/21 05:12:02;;;;;;;18.17;11.45;;;3.20;99.90;;;;;;4989355;28;20082;-75
2021/04/21 05:14:28;;;;;;;16.80;10.57;;;3.20;99.90;;;;;;4995110;28;20578;-75
2021/04/21 05:16:57;;;;;;;18.15;10.95;;;3.20;99.90;;;;;;4984840;28;20174;-75
2021/04/21 05:20:03;;;;;;;20.33;12.38;;;3.20;99.90;;;;;;4989637;28;20158;-74
2021/04/21 05:22:54;;;;;;;19.45;11.60;;;3.30;99.90;;;;;;4990667;28;20089;-75
2021/04/21 05:25:44;;;;;;;19.52;11.70;;;3.40;99.90;;;;;;4977821;28;20094;-75
2021/04/21 05:28:51;;;;;;;19.10;12.15;;;3.40;99.90;;;;;;4992049;28;20082;-76
2021/04/21 05:31:37;;;;;;;17.70;11.18;;;3.60;99.90;;;;;;4995166;28;20132;-76
2021/04/21 05:34:30;;;;;;;15.35;10.10;;;3.60;99.90;;;;;;4968130;28;20074;-76
2021/04/21 05:37:40;;;;;;;17.92;11.70;;;3.70;99.90;;;;;;4976729;28;20094;-75
2021/04/21 05:40:30;;;;;;;17.15;11.43;;;3.70;99.90;;;;;;5003628;28;20124;-74
2021/04/21 05:43:15;;;;;;;16.98;10.82;;;3.80;99.90;;;;;;4994122;28;20189;-75
2021/04/21 05:46:13;;;;;;;17.90;11.68;;;3.90;99.90;;;;;;4989967;28;20114;-75
2021/04/21 05:49:03;;;;;;;21.55;11.13;;;4.00;99.90;;;;;;4998681;28;20074;-75
2021/04/21 05:52:08;;;;;;;18.83;10.80;;;4.20;99.90;;;;;;4981100;28;20079;-76
2021/04/21 05:54:55;;;;;;;21.67;11.05;;;4.20;99.90;;;;;;5006327;28;20089;-76
2021/04/21 05:58:07;;;;;;;18.55;12.05;;;4.30;99.90;;;;;;4998868;28;20109;-76
2021/04/21 06:01:01;;;;;;;15.18;10.32;;;4.50;99.90;;;;;;4978464;28;20102;-76
2021/04/21 06:03:29;;;;;;;16.67;10.73;;;4.60;99.90;;;;;;4996085;28;20086;-79
2021/04/21 06:06:05;;;;;;;14.63;10.27;;;4.80;99.90;;;;;;5009306;28;20094;-74
2021/04/21 06:08:31;;;;;;;16.63;10.35;;;5.00;99.90;;;;;;5000620;28;20117;-76
2021/04/21 06:10:57;;;;;;;16.63;10.98;;;5.00;99.90;;;;;;5009764;28;20089;-75
2021/04/21 06:13:33;;;;;;;17.13;10.95;;;5.00;99.90;;;;;;4992389;28;20103;-75
2021/04/21 06:16:00;;;;;;;15.85;11.50;;;5.10;99.90;;;;;;4998156;28;20098;-75
2021/04/21 06:18:26;;;;;;;13.88;9.07;;;5.30;99.90;;;;;;5011072;28;20550;-76
2021/04/21 06:20:52;;;;;;;12.88;9.10;;;5.40;99.90;;;;;;4996108;28;20760;-79
2021/04/21 06:23:21;;;;;;;11.00;8.02;;;5.60;99.90;;;;;;4977312;28;20090;-77
2021/04/21 06:25:49;;;;;;;10.20;7.85;;;5.70;99.90;;;;;;4993295;28;20592;-77
2021/04/21 06:28:18;;;;;;;11.20;7.32;;;5.90;99.90;;;;;;5012172;28;20067;-77
2021/04/21 06:30:47;;;;;;;10.02;6.90;;;6.00;99.90;;;;;;5011665;28;20148;-76
2021/04/21 06:33:13;;;;;;;8.98;6.53;;;6.20;99.90;;;;;;4994496;28;20094;-77
2021/04/21 06:35:40;;;;;;;10.82;6.00;;;6.60;99.90;;;;;;4993225;28;20145;-76
2021/04/21 06:38:06;;;;;;;8.27;5.57;;;7.00;99.90;;;;;;4994869;28;20089;-77
2021/04/21 06:40:34;;;;;;;7.75;5.63;;;6.90;99.90;;;;;;5012951;28;20090;-77
2021/04/21 06:43:00;;;;;;;7.07;4.97;;;7.00;99.90;;;;;;4990125;28;20083;-76
2021/04/21 06:45:34;;;;;;;7.13;5.43;;;7.10;99.90;;;;;;4974179;28;20095;-76
2021/04/21 06:48:01;;;;;;;9.20;6.57;;;7.20;99.90;;;;;;4991586;28;20086;-76
2021/04/21 06:50:31;;;;;;;6.90;5.03;;;7.30;99.90;;;;;;5001732;28;20082;-76
2021/04/21 06:53:06;;;;;;;7.35;5.43;;;7.40;99.90;;;;;;4994183;28;20088;-76
2021/04/21 06:55:32;;;;;;;;;;;7.50;99.90;;;;;;4996524;28;20101;-76
2021/04/21 06:57:59;;;;;;;6.72;5.47;;;7.50;99.90;;;;;;5002888;28;19964;-77
2021/04/21 07:00:26;;;;;;;7.70;5.05;;;7.70;99.90;;;;;;4997875;28;20507;-77
2021/04/21 07:02:58;;;;;;;6.97;5.05;;;7.90;99.90;;;;;;4990737;28;20428;-77
2021/04/21 07:05:26;;;;;;;6.93;5.05;;;8.00;99.90;;;;;;4998415;28;20099;-75
2021/04/21 07:08:19;;;;;;;7.18;5.57;;;8.00;99.90;;;;;;4996422;28;20110;-76
2021/04/21 07:10:47;;;;;;;6.30;5.50;;;8.10;99.90;;;;;;4979373;28;20475;-76
2021/04/21 07:13:17;;;;;;;10.05;6.38;;;8.70;99.90;;;;;;4973311;28;20162;-76
2021/04/21 07:15:43;;;;;;;10.68;6.35;;;8.50;99.90;;;;;;4974712;28;20106;-75
2021/04/21 07:18:15;;;;;;;7.00;5.85;;;8.40;99.90;;;;;;4978693;28;20594;-75
2021/04/21 07:20:41;;;;;;;8.13;6.60;;;8.60;99.90;;;;;;4991794;28;20090;-76
2021/04/21 07:23:10;;;;;;;8.27;6.57;;;8.60;99.90;;;;;;4997000;28;20534;-76
2021/04/21 07:25:37;;;;;;;9.57;5.45;;;8.60;99.90;;;;;;5001313;28;20472;-76
2021/04/21 07:28:04;;;;;;;7.75;5.85;;;9.10;99.90;;;;;;4989926;28;20220;-75
2021/04/21 07:30:32;;;;;;;7.88;6.22;;;8.90;99.90;;;;;;4989061;28;20078;-75
2021/04/21 07:32:58;;;;;;;12.45;6.75;;;9.30;99.90;;;;;;4972262;28;20451;-75
2021/04/21 07:35:27;;;;;;;9.73;6.00;;;9.30;99.90;;;;;;4991049;28;20121;-76
2021/04/21 07:37:56;;;;;;;9.38;6.68;;;9.20;99.90;;;;;;4987576;28;20075;-75
2021/04/21 07:40:26;;;;;;;8.80;5.60;;;9.70;99.90;;;;;;4997273;28;20096;-75
2021/04/21 07:43:16;;;;;;;9.38;6.95;;;9.90;99.90;;;;;;4990227;28;20075;-75
2021/04/21 07:45:46;;;;;;;8.23;6.50;;;9.70;99.90;;;;;;4990937;28;20093;-76
2021/04/21 07:48:33;;;;;;;8.98;6.43;;;9.80;99.90;;;;;;4988668;28;20157;-76
2021/04/21 07:51:20;;;;;;;9.32;6.68;;;9.80;99.90;;;;;;4972504;28;20704;-76
2021/04/21 07:53:49;;;;;;;11.65;7.38;;;9.80;99.90;;;;;;4990990;28;20106;-75
2021/04/21 07:56:15;;;;;;;9.40;7.13;;;9.80;99.90;;;;;;4990848;28;20558;-76
2021/04/21 07:58:41;;;;;;;12.00;7.70;;;9.80;99.90;;;;;;4989943;28;20082;-76
2021/04/21 08:01:07;;;;;;;10.70;8.00;;;9.90;99.90;;;;;;4989036;28;20095;-75
2021/04/21 08:03:36;;;;;;;12.15;7.30;;;10.40;99.90;;;;;;4995646;28;20098;-76
2021/04/21 08:06:03;;;;;;;9.98;6.60;;;10.80;99.90;;;;;;4999986;28;20164;-75
2021/04/21 08:08:30;;;;;;;10.73;8.00;;;11.00;99.90;;;;;;4972751;28;20078;-75
2021/04/21 08:10:57;;;;;;;12.02;7.95;;;11.10;99.90;;;;;;4986327;28;20490;-76
2021/04/21 08:13:42;;;;;;;12.43;9.15;;;10.70;99.90;;;;;;4990075;28;20082;-75
2021/04/21 08:16:26;;;;;;;;;;;11.10;99.90;;;;;;4993899;28;20629;-76
2021/04/21 08:18:54;;;;;;;14.27;9.38;;;11.30;99.90;;;;;;4990573;28;20354;-76
2021/04/21 08:21:39;;;;;;;16.25;10.88;;;11.20;99.90;;;;;;4995004;28;20090;-76
2021/04/21 08:24:05;;;;;;;;;;;11.60;99.90;;;;;;4989930;28;20073;-75
2021/04/21 08:26:31;;;;;;;14.23;9.82;;;11.60;99.90;;;;;;4998370;28;19981;-76
2021/04/21 08:28:58;;;;;;;15.63;9.57;;;11.60;99.90;;;;;;4990553;28;20075;-76
2021/04/21 08:31:25;;;;;;;15.27;10.95;;;11.70;99.90;;;;;;5002743;28;20078;-77
2021/04/21 08:33:50;;;;;;;12.75;9.95;;;12.00;99.90;;;;;;4993369;28;20157;-76
2021/04/21 08:36:16;;;;;;;12.55;9.45;;;11.70;99.90;;;;;;4984922;28;20593;-76
2021/04/21 08:38:41;;;;;;;13.82;10.05;;;11.80;99.90;;;;;;4971468;28;20078;-76
2021/04/21 08:41:08;;;;;;;14.13;9.60;;;11.70;99.90;;;;;;4991058;28;20086;-77
2021/04/21 08:43:36;;;;;;;12.32;9.48;;;11.50;99.90;;;;;;4995917;28;20099;-75
2021/04/21 08:46:03;;;;;;;12.98;8.63;;;11.50;99.90;;;;;;4993720;28;20193;-77
2021/04/21 08:48:32;;;;;;;13.15;9.23;;;11.80;99.90;;;;;;4994393;28;20071;-76
2021/04/21 08:50:58;;;;;;;13.15;10.18;;;11.90;99.90;;;;;;4989532;28;20562;-76
2021/04/21 08:53:24;;;;;;;13.65;8.98;;;12.10;99.90;;;;;;4998841;28;20086;-76
2021/04/21 08:55:52;;;;;;;11.48;8.57;;;12.10;99.90;;;;;;5009868;28;20105;-77
2021/04/21 08:58:20;;;;;;;13.65;9.65;;;12.20;99.90;;;;;;4990410;28;20086;-77
2021/04/21 09:00:46;;;;;;;12.48;8.63;;;12.10;99.90;;;;;;4975299;28;20087;-76
2021/04/21 09:03:12;;;;;;;12.27;9.07;;;12.20;99.90;;;;;;5012990;28;20550;-77
2021/04/21 09:05:37;;;;;;;10.80;8.48;;;12.20;99.90;;;;;;4999702;28;20099;-76
2021/04/21 09:08:04;;;;;;;11.45;8.68;;;12.50;99.90;;;;;;4993481;28;20613;-74
2021/04/21 09:10:30;;;;;;;12.27;8.75;;;12.70;99.90;;;;;;4993455;28;20079;-77
2021/04/21 09:12:56;;;;;;;13.05;9.60;;;12.80;99.90;;;;;;4991892;28;20467;-78
2021/04/21 09:15:21;;;;;;;12.68;9.68;;;12.80;99.90;;;;;;4999508;28;20547;-76
2021/04/21 09:17:50;;;;;;;11.35;7.78;;;13.00;99.90;;;;;;5011285;28;20101;-76
2021/04/21 09:20:18;;;;;;;13.15;8.43;;;13.20;99.90;;;;;;4995848;28;20090;-77
2021/04/21 09:23:06;;;;;;;10.75;6.95;;;13.00;99.90;;;;;;5002892;28;20114;-76
2021/04/21 09:25:37;;;;;;;11.20;7.85;;;13.00;99.90;;;;;;4991578;28;20087;-76
2021/04/21 09:28:05;;;;;;;10.57;7.55;;;13.20;99.90;;;;;;5006385;28;20110;-76
2021/04/21 09:30:31;;;;;;;9.90;8.00;;;13.10;99.90;;;;;;5001402;28;20078;-76
2021/04/21 09:32:58;;;;;;;10.40;7.80;;;12.80;99.90;;;;;;5004317;28;20114;-74
2021/04/21 09:35:36;;;;;;;13.07;9.52;;;12.80;99.90;;;;;;5008264;28;20091;-73
2021/04/21 09:38:17;;;;;;;12.40;8.23;;;12.70;99.90;;;;;;5002861;28;20079;-74
2021/04/21 09:40:58;;;;;;;14.70;8.23;;;12.80;99.90;;;;;;5006275;28;20078;-73
2021/04/21 09:43:26;;;;;;;12.57;8.65;;;13.00;99.90;;;;;;5011159;28;20157;-74
2021/04/21 09:45:54;;;;;;;10.88;7.78;;;13.20;99.90;;;;;;5003819;28;20532;-74
2021/04/21 09:48:37;;;;;;;14.52;8.20;;;13.00;99.90;;;;;;4988203;28;20462;-72
2021/04/21 09:51:20;;;;;;;9.95;7.50;;;12.90;99.90;;;;;;4992269;28;20106;-73
2021/04/21 09:53:47;;;;;;;10.52;7.90;;;13.10;99.90;;;;;;4990991;28;20595;-74
2021/04/21 09:56:16;;;;;;;12.32;8.82;;;12.90;99.30;;;;;;4993787;28;20859;-76
2021/04/21 09:58:45;;;;;;;10.23;7.82;;;12.90;99.10;;;;;;4997467;28;20141;-77
2021/04/21 10:01:33;;;;;;;10.60;7.70;;;12.90;99.80;;;;;;4974779;28;20650;-76
2021/04/21 10:04:11;;;;;;;10.77;8.50;;;12.90;99.90;;;;;;4994587;28;20080;-81
2021/04/21 10:06:43;;;;;;;11.00;8.07;;;12.90;99.40;;;;;;4991936;28;20114;-76
2021/04/21 10:09:46;;;;;;;13.30;8.73;;;12.90;99.90;;;;;;5011249;28;20147;-76
2021/04/21 10:12:17;;;;;;;11.40;8.18;;;13.20;99.90;;;;;;4931065;29;20981;-76
2021/04/21 10:15:02;;;;;;;9.98;7.82;;;13.50;98.70;;;;;;4993507;28;20145;-76
2021/04/21 10:17:28;;;;;;;;;;;13.60;98.60;;;;;;5002040;28;20067;-77
2021/04/21 10:19:54;;;;;;;10.13;7.28;;;13.40;99.60;;;;;;5007217;28;20047;-74
2021/04/21 10:22:20;;;;;;;11.93;8.50;;;13.40;99.00;;;;;;5003164;28;20082;-74
2021/04/21 10:24:47;;;;;;;11.57;9.32;;;13.30;99.90;;;;;;5006399;28;20604;-76
2021/04/21 10:27:14;;;;;;;11.32;7.80;;;13.10;99.90;;;;;;5002070;28;20471;-75
2021/04/21 10:29:40;;;;;;;12.07;9.20;;;13.00;99.90;;;;;;5001988;28;20109;-75
2021/04/21 10:32:06;;;;;;;13.75;10.35;;;13.00;99.90;;;;;;5003438;28;20079;-75
2021/04/21 10:34:33;;;;;;;13.90;9.90;;;13.00;99.90;;;;;;4978711;28;20074;-76
2021/04/21 10:37:00;;;;;;;12.93;9.40;;;13.10;99.90;;;;;;4999815;28;20077;-75
2021/04/21 10:39:32;;;;;;;11.43;9.32;;;13.20;99.90;;;;;;4996826;28;20454;-76
2021/04/21 10:42:15;;;;;;;12.20;8.70;;;13.30;99.90;;;;;;4974985;28;20121;-74
2021/04/21 10:44:44;;;;;;;15.18;9.25;;;13.20;99.90;;;;;;4985476;28;20094;-75
2021/04/21 10:47:12;;;;;;;15.52;10.00;;;13.40;99.90;;;;;;4980969;28;20841;-75
2021/04/21 10:49:55;;;;;;;11.95;8.32;;;13.50;99.90;;;;;;4990275;28;20083;-76
2021/04/21 10:52:29;;;;;;;12.77;9.30;;;13.50;99.90;;;;;;5000203;28;20083;-76
2021/04/21 10:55:01;;;;;;;12.63;9.48;;;13.50;99.90;;;;;;4974592;28;20649;-76
2021/04/21 10:57:36;;;;;;;15.13;9.50;;;13.60;99.90;;;;;;5004685;28;20087;-77
2021/04/21 11:00:23;;;;;;;12.50;8.48;;;13.50;99.90;;;;;;4985420;28;20077;-77
2021/04/21 11:02:59;;;;;;;14.07;9.57;;;13.50;99.90;;;;;;4982765;28;20106;-76
2021/04/21 11:05:33;;;;;;;10.93;8.02;;;13.50;99.90;;;;;;5004419;28;20486;-76
2021/04/21 11:08:15;;;;;;;11.18;7.03;;;13.50;99.90;;;;;;4994956;28;20063;-76
2021/04/21 11:10:53;;;;;;;13.23;9.65;;;13.60;99.90;;;;;;5000640;28;20079;-76
2021/04/21 11:13:34;;;;;;;14.07;9.70;;;13.60;99.80;;;;;;4992212;28;20470;-75
2021/04/21 11:16:01;;;;;;;14.88;9.63;;;13.60;98.50;;;;;;4999690;28;21135;-74
2021/04/21 11:18:30;;;;;;;11.93;9.07;;;13.50;99.10;;;;;;4988528;28;20086;-75
2021/04/21 11:21:09;;;;;;;12.70;9.48;;;13.80;99.90;;;;;;4991010;28;20182;-75
2021/04/21 11:23:52;;;;;;;15.88;9.90;;;13.80;98.60;;;;;;5004140;28;20087;-76
2021/04/21 11:26:24;;;;;;;13.48;10.45;;;13.80;98.30;;;;;;4994332;28;20162;-77
2021/04/21 11:29:12;;;;;;;13.65;9.02;;;13.80;97.90;;;;;;4998619;28;20438;-77
2021/04/21 11:31:49;;;;;;;14.10;9.63;;;13.90;99.80;;;;;;4979899;28;20098;-79
2021/04/21 11:34:34;;;;;;;15.20;9.63;;;13.80;99.90;;;;;;4990848;28;20066;-76
2021/04/21 11:37:02;;;;;;;11.80;8.65;;;13.60;99.40;;;;;;4981700;28;20075;-83
2021/04/21 11:39:46;;;;;;;14.00;9.25;;;13.60;99.00;;;;;;5002892;28;20101;-79
2021/04/21 11:42:23;;;;;;;12.85;9.38;;;13.60;99.70;;;;;;4974703;28;20103;-77
2021/04/21 11:45:23;;;;;;;13.20;9.20;;;13.60;99.30;;;;;;4979663;28;20189;-78
2021/04/21 11:48:01;;;;;;;12.48;9.38;;;13.50;99.00;;;;;;4976018;28;20071;-75
2021/04/21 11:50:30;;;;;;;11.90;8.85;;;13.50;99.80;;;;;;4987687;28;20096;-75
2021/04/21 11:52:58;;;;;;;12.88;9.55;;;13.50;99.90;;;;;;4992997;28;20082;-75
2021/04/21 11:55:31;;;;;;;11.73;8.90;;;13.70;99.90;;;;;;4972519;28;20681;-75
2021/04/21 11:58:10;;;;;;;11.90;8.73;;;13.70;99.90;;;;;;5004527;28;20726;-74
2021/04/21 12:00:38;;;;;;;11.63;8.18;;;14.10;99.10;;;;;;4973767;28;20152;-75
2021/04/21 12:03:11;;;;;;;12.73;8.48;;;14.70;99.70;;;;;;5007064;28;20196;-74
2021/04/21 12:05:37;;;;;;;9.88;8.43;;;15.00;99.00;;;;;;4991171;28;20101;-76
2021/04/21 12:08:06;;;;;;;13.40;9.45;;;15.00;96.60;;;;;;4988750;28;20491;-74
2021/04/21 12:10:33;;;;;;;16.17;9.60;;;14.90;96.20;;;;;;5003406;28;20079;-73
2021/04/21 12:13:15;;;;;;;10.40;8.57;;;15.00;98.50;;;;;;5002483;28;20105;-73
2021/04/21 12:15:42;;;;;;;11.25;8.27;;;14.70;96.00;;;;;;5002848;28;20128;-73
2021/04/21 12:18:08;;;;;;;10.38;8.10;;;14.90;96.80;;;;;;5007093;28;20106;-74
2021/04/21 12:20:34;;;;;;;11.15;7.55;;;14.70;96.20;;;;;;5004454;28;20091;-74
2021/04/21 12:23:30;;;;;;;9.25;7.13;;;14.60;96.10;;;;;;4994346;28;20086;-77
2021/04/21 12:25:56;;;;;;;9.63;7.47;;;14.50;94.60;;;;;;4991789;28;20507;-74
2021/04/21 12:28:22;;;;;;;10.18;7.45;;;14.50;95.50;;;;;;5001013;28;20081;-73
2021/04/21 12:30:56;;;;;;;7.38;6.50;;;14.80;95.10;;;;;;4993336;28;20531;-73
2021/04/21 12:33:22;;;;;;;;;;;14.80;95.20;;;;;;4992638;28;20078;-74
2021/04/21 12:35:52;;;;;;;8.63;6.28;;;14.70;94.90;;;;;;4992907;28;19982;-73
2021/04/21 12:38:25;;;;;;;11.23;7.38;;;14.70;93.00;;;;;;4993771;28;20079;-74
2021/04/21 12:40:51;;;;;;;10.13;7.65;;;14.80;92.90;;;;;;4974931;28;20214;-73
2021/04/21 12:43:17;;;;;;;10.55;7.82;;;15.40;95.20;;;;;;4993577;28;20098;-74
2021/04/21 12:45:44;;;;;;;10.85;6.93;;;15.10;90.20;;;;;;4991908;28;20153;-73
2021/04/21 12:48:20;;;;;;;9.52;6.80;;;14.90;90.40;;;;;;4989409;28;20158;-73
2021/04/21 12:50:50;;;;;;;8.80;5.95;;;15.20;91.10;;;;;;4998635;28;20077;-73
2021/04/21 12:53:18;;;;;;;8.98;6.75;;;15.20;93.20;;;;;;5006647;28;20535;-74
2021/04/21 12:55:49;;;;;;;8.25;6.78;;;15.30;92.40;;;;;;5007046;28;20094;-74
2021/04/21 12:58:34;;;;;;;9.18;7.03;;;15.00;88.30;;;;;;5008306;28;20117;-74
2021/04/21 13:01:23;;;;;;;9.32;6.65;;;15.40;93.60;;;;;;4999087;28;20100;-74
2021/04/21 13:03:56;;;;;;;12.15;8.18;;;15.20;90.10;;;;;;5011425;28;20078;-73
2021/04/21 13:06:52;;;;;;;11.20;8.80;;;15.20;92.30;;;;;;4995540;28;20167;-76
2021/04/21 13:09:21;;;;;;;10.80;8.02;;;15.10;92.90;;;;;;5009591;28;20325;-73
2021/04/21 13:11:48;;;;;;;11.75;8.27;;;15.10;92.80;;;;;;4991313;28;20083;-74
2021/04/21 13:14:16;;;;;;;8.60;7.18;;;15.00;93.20;;;;;;5004552;28;20098;-74
2021/04/21 13:16:49;;;;;;;9.40;6.78;;;15.10;90.70;;;;;;5005011;28;20155;-74
2021/04/21 13:19:25;;;;;;;8.80;7.80;;;15.00;90.70;;;;;;4987265;28;20085;-75
2021/04/21 13:22:10;;;;;;;11.30;7.88;;;15.10;90.40;;;;;;4991046;28;20099;-77
2021/04/21 13:24:53;;;;;;;8.48;7.18;;;15.10;90.00;;;;;;4993344;28;20101;-75
2021/04/21 13:27:26;;;;;;;9.27;6.72;;;15.00;89.20;;;;;;5007157;28;20120;-75
2021/04/21 13:29:56;;;;;;;18.20;7.75;;;15.00;90.00;;;;;;4996806;28;20079;-74
2021/04/21 13:32:22;;;;;;;8.75;6.85;;;15.10;90.40;;;;;;5005994;28;20451;-74
2021/04/21 13:34:47;;;;;;;7.20;6.38;;;15.20;87.80;;;;;;5012579;28;20091;-74
2021/04/21 13:37:13;;;;;;;10.93;7.07;;;15.40;88.40;;;;;;5006474;28;20148;-75
2021/04/21 13:39:39;;;;;;;9.13;6.95;;;15.50;87.20;;;;;;5001802;28;20629;-74
2021/04/21 13:42:06;;;;;;;10.50;8.23;;;15.50;85.70;;;;;;4990531;28;20094;-75
2021/04/21 13:44:32;;;;;;;8.93;7.28;;;15.40;86.20;;;;;;5009897;28;20120;-74
2021/04/21 13:46:57;;;;;;;10.13;7.05;;;15.40;87.50;;;;;;5005709;28;20105;-80
2021/04/21 13:49:24;;;;;;;9.02;6.57;;;15.50;84.30;;;;;;4980576;28;20557;-77